Time;durP1;ratioP1;P1;durP2;ratioP2;P2;SDS_P1;SDS_P2;PMS_P1;PMS_P2;Temp;Humidity;BMP_temperature;BMP_pressure;BME280_temperature;BME280_humidity;BME280_pressure;Samples;Min_cycle;Max_cycle;Signal;HPM_P1;HPM_P2
2022/11/23 00:00:47;;;;;;;7.20;4.65;;;;;;;10.53;69.31;99059.50;4979394;28;20054;-78
2022/11/23 00:03:32;;;;;;;6.95;4.60;;;;;;;10.52;69.62;99062.56;4991165;28;20046;-78
2022/11/23 00:06:18;;;;;;;12.20;4.45;;;;;;;10.56;69.10;99066.16;4989418;28;20045;-77
2022/11/23 00:09:03;;;;;;;7.72;5.05;;;;;;;10.55;69.02;99075.44;4978836;28;20053;-76
2022/11/23 00:11:48;;;;;;;9.65;5.10;;;;;;;10.52;69.21;99071.50;4977612;28;20057;-78
2022/11/23 00:14:32;;;;;;;7.78;4.63;;;;;;;10.51;69.15;99088.19;4989551;28;20050;-77
2022/11/23 00:17:17;;;;;;;;;;;;;;;10.52;69.34;99095.16;4975503;28;20047;-77
2022/11/23 00:20:02;;;;;;;8.60;5.13;;;;;;;10.58;69.03;99094.53;4977777;28;19914;-77
2022/11/23 00:22:47;;;;;;;7.22;4.93;;;;;;;10.50;68.97;99087.38;4975365;28;20054;-75
2022/11/23 00:25:33;;;;;;;9.63;5.13;;;;;;;10.48;69.60;99097.03;4975655;28;20058;-77
2022/11/23 00:28:18;;;;;;;8.15;5.15;;;;;;;10.52;69.24;99097.88;4974084;28;20057;-77
2022/11/23 00:31:11;;;;;;;7.60;4.32;;;;;;;10.57;69.63;99100.31;4988891;28;20062;-77
2022/11/23 00:33:57;;;;;;;7.97;4.80;;;;;;;10.68;68.92;99091.28;4979162;28;20038;-77
2022/11/23 00:36:41;;;;;;;8.93;4.75;;;;;;;10.59;69.28;99092.63;4977791;28;20062;-77
2022/11/23 00:39:26;;;;;;;;;;;;;;;10.75;68.76;99098.81;4975771;28;20411;-77
2022/11/23 00:42:11;;;;;;;5.68;3.45;;;;;;;10.59;68.57;99098.06;4974443;28;20371;-77
2022/11/23 00:44:56;;;;;;;;;;;;;;;10.54;68.38;99106.47;4978427;28;20054;-77
2022/11/23 00:47:41;;;;;;;8.10;4.57;;;;;;;10.48;68.52;99097.81;4990489;28;20305;-78
2022/11/23 00:50:26;;;;;;;8.52;3.05;;;;;;;10.50;69.08;99105.63;4994574;28;20676;-77
2022/11/23 00:53:10;;;;;;;7.00;3.60;;;;;;;10.55;68.62;99099.91;4979534;28;20053;-78
2022/11/23 00:55:56;;;;;;;5.22;3.38;;;;;;;10.57;67.97;99103.03;4994411;28;20053;-77
2022/11/23 00:58:41;;;;;;;7.22;3.85;;;;;;;10.53;68.11;99113.06;4983286;28;20069;-80
2022/11/23 01:01:32;;;;;;;4.40;3.47;;;;;;;10.64;68.26;99114.88;4997496;28;20061;-80
2022/11/23 01:04:17;;;;;;;4.97;3.60;;;;;;;10.51;68.13;99110.72;4984130;28;20045;-80
2022/11/23 01:07:02;;;;;;;4.82;3.05;;;;;;;10.47;68.75;99120.69;4982597;28;20053;-80
2022/11/23 01:09:46;;;;;;;4.70;3.05;;;;;;;10.39;68.78;99112.72;4996882;28;20073;-80
2022/11/23 01:12:31;;;;;;;;;;;;;;;10.31;68.97;99128.06;4996406;28;20045;-80
2022/11/23 01:15:15;;;;;;;10.07;5.28;;;;;;;10.29;69.00;99133.06;4982469;28;20291;-79
2022/11/23 01:18:00;;;;;;;4.00;3.22;;;;;;;10.29;69.38;99136.59;4996651;28;20069;-80
2022/11/23 01:20:45;;;;;;;;;;;;;;;10.28;69.02;99135.00;4984390;28;20058;-80
2022/11/23 01:23:30;;;;;;;8.50;3.97;;;;;;;10.18;68.65;99140.19;4981170;28;20394;-79
2022/11/23 01:26:15;;;;;;;5.60;3.72;;;;;;;10.09;69.16;99142.25;4996010;28;20411;-78
2022/11/23 01:29:00;;;;;;;6.43;4.70;;;;;;;10.05;69.20;99141.38;4996237;28;20049;-79
2022/11/23 01:31:45;;;;;;;6.15;4.47;;;;;;;9.98;69.32;99147.41;4981445;28;20053;-80
2022/11/23 01:34:31;;;;;;;11.27;4.63;;;;;;;9.98;69.38;99152.84;4984634;28;20041;-79
2022/11/23 01:37:16;;;;;;;;;;;;;;;9.98;69.18;99152.06;4995437;28;20066;-80
2022/11/23 01:40:02;;;;;;;6.32;4.28;;;;;;;9.95;69.05;99175.28;4981201;28;19914;-80
2022/11/23 01:42:47;;;;;;;;;;;;;;;9.98;69.01;99173.78;4985512;28;20050;-78
2022/11/23 01:45:39;;;;;;;6.22;4.43;;;;;;;10.10;68.65;99184.56;4982650;28;20382;-76
2022/11/23 01:48:41;;;;;;;6.40;4.32;;;;;;;10.04;67.15;99178.63;4994061;28;20042;-78
2022/11/23 01:51:30;;;;;;;5.80;4.53;;;;;;;10.01;67.09;99175.78;4982171;28;20042;-79
2022/11/23 01:54:30;;;;;;;6.78;4.30;;;;;;;9.94;68.17;99189.19;4988840;28;20049;-77
2022/11/23 01:57:36;;;;;;;5.70;4.55;;;;;;;10.07;67.56;99193.41;4983428;28;20050;-76
2022/11/23 02:00:22;;;;;;;7.93;4.35;;;;;;;9.81;67.02;99186.53;4996820;28;20049;-77
2022/11/23 02:03:08;;;;;;;4.57;3.33;;;;;;;9.78;68.42;99195.38;4998799;28;20046;-77
2022/11/23 02:06:00;;;;;;;8.52;4.90;;;;;;;9.75;68.76;99203.44;4983423;28;20053;-77
2022/11/23 02:08:46;;;;;;;8.73;4.80;;;;;;;9.74;68.41;99202.66;4993343;28;20058;-76
2022/11/23 02:11:32;;;;;;;7.60;5.43;;;;;;;9.77;67.27;99212.00;4978809;28;20057;-79
2022/11/23 02:14:17;;;;;;;;;;;;;;;9.77;67.76;99215.50;4983531;28;20045;-75
2022/11/23 02:17:01;;;;;;;6.13;4.25;;;;;;;9.76;67.47;99218.56;4990357;28;19917;-78
2022/11/23 02:19:56;;;;;;;6.82;3.97;;;;;;;9.60;69.07;99217.75;4994800;28;20049;-77
2022/11/23 02:23:14;;;;;;;6.90;5.03;;;;;;;9.67;69.45;99224.16;4988313;28;20169;-77
2022/11/23 02:26:01;;;;;;;9.30;5.57;;;;;;;9.58;69.44;99220.81;4996967;28;20065;-79
2022/11/23 02:28:51;;;;;;;5.53;4.35;;;;;;;9.88;67.66;99232.88;4990743;28;20422;-77
2022/11/23 02:31:36;;;;;;;5.10;3.58;;;;;;;9.85;66.84;99233.56;4980254;28;20045;-77
2022/11/23 02:34:21;;;;;;;4.30;3.17;;;;;;;9.59;66.06;99230.53;4991758;28;20045;-78
2022/11/23 02:37:07;;;;;;;10.27;4.75;;;;;;;9.76;66.40;99237.56;4994949;28;20049;-77
2022/11/23 02:39:55;;;;;;;9.27;4.53;;;;;;;10.05;67.05;99239.94;4990780;28;20053;-76
2022/11/23 02:42:40;;;;;;;5.53;4.03;;;;;;;10.13;66.85;99236.25;4978222;28;20045;-76
2022/11/23 02:45:28;;;;;;;;;;;;;;;9.82;65.88;99231.56;4963676;28;20691;-77
2022/11/23 02:48:12;;;;;;;6.80;4.38;;;;;;;9.66;68.13;99248.91;4986730;28;19913;-75
2022/11/23 02:50:57;;;;;;;;;;;;;;;10.05;67.74;99245.38;4992690;28;20054;-76
2022/11/23 02:53:42;;;;;;;6.18;4.75;;;;;;;10.01;66.78;99243.66;4992600;28;19913;-76
2022/11/23 02:56:28;;;;;;;22.88;4.25;;;;;;;9.31;65.90;99249.47;4992692;28;20061;-76
2022/11/23 02:59:13;;;;;;;4.07;3.65;;;;;;;9.53;66.74;99255.53;4991515;28;20049;-77
2022/11/23 03:02:02;;;;;;;6.97;4.47;;;;;;;9.61;66.60;99247.25;4991998;28;20054;-77
2022/11/23 03:04:48;;;;;;;9.68;4.78;;;;;;;9.39;68.18;99251.28;4992303;28;20533;-76
2022/11/23 03:07:36;;;;;;;7.45;5.13;;;;;;;9.53;67.75;99248.19;4992074;28;20057;-76
2022/11/23 03:10:21;;;;;;;5.07;3.78;;;;;;;9.49;68.29;99254.63;4976994;28;20054;-75
2022/11/23 03:13:09;;;;;;;10.13;5.10;;;;;;;9.19;67.47;99263.06;4986319;28;20042;-77
2022/11/23 03:15:57;;;;;;;7.15;4.68;;;;;;;9.55;68.65;99264.13;4978100;28;20049;-76
2022/11/23 03:18:44;;;;;;;9.43;4.80;;;;;;;9.34;68.42;99270.50;4982140;28;20053;-76
2022/11/23 03:21:29;;;;;;;7.15;4.25;;;;;;;9.35;66.50;99269.34;4991958;28;20057;-76
2022/11/23 03:24:15;;;;;;;4.70;3.63;;;;;;;9.40;66.31;99274.53;4979016;28;20049;-77
2022/11/23 03:27:00;;;;;;;8.02;4.35;;;;;;;9.34;66.27;99275.94;4991868;28;20050;-77
2022/11/23 03:29:46;;;;;;;5.78;4.35;;;;;;;8.96;66.57;99276.28;4985932;28;20058;-76
2022/11/23 03:32:36;;;;;;;9.02;5.30;;;;;;;9.06;68.41;99268.81;4991487;28;20041;-76
2022/11/23 03:35:21;;;;;;;7.85;3.97;;;;;;;9.30;66.99;99275.00;4982034;28;20057;-78
2022/11/23 03:38:34;;;;;;;10.48;4.10;;;;;;;8.74;64.26;99275.94;4995247;28;20522;-79
2022/11/23 03:41:19;;;;;;;7.07;3.78;;;;;;;8.67;67.38;99267.59;4988279;28;20056;-78
2022/11/23 03:44:09;;;;;;;5.40;3.60;;;;;;;8.84;66.16;99278.19;4996852;28;20042;-79
2022/11/23 03:46:54;;;;;;;8.13;3.80;;;;;;;8.74;67.02;99267.81;4997391;28;20057;-79
2022/11/23 03:49:39;;;;;;;4.45;2.70;;;;;;;8.72;67.79;99272.78;4998639;28;20045;-78
2022/11/23 03:52:24;;;;;;;;;;;;;;;8.92;65.61;99269.97;4997655;28;20053;-78
2022/11/23 03:55:09;;;;;;;10.05;4.05;;;;;;;9.16;66.73;99269.16;4997050;28;20294;-77
2022/11/23 03:57:58;;;;;;;5.95;4.13;;;;;;;9.09;65.79;99279.00;5008230;28;20049;-78
2022/11/23 04:00:43;;;;;;;12.40;4.95;;;;;;;8.88;66.32;99274.50;4999853;28;20515;-77
2022/11/23 04:03:30;;;;;;;5.45;3.55;;;;;;;9.01;66.28;99273.34;4996384;28;20054;-77
2022/11/23 04:06:29;;;;;;;4.90;3.00;;;;;;;8.65;65.67;99269.84;4986536;28;20045;-77
2022/11/23 04:09:27;;;;;;;6.18;3.90;;;;;;;8.31;67.27;99273.75;4976118;28;20427;-77
2022/11/23 04:12:25;;;;;;;5.80;4.78;;;;;;;8.52;67.82;99275.25;4995088;28;20411;-76
2022/11/23 04:15:10;;;;;;;4.50;3.38;;;;;;;8.44;65.63;99270.72;4978343;28;20053;-77
2022/11/23 04:17:56;;;;;;;4.90;3.78;;;;;;;8.48;67.26;99282.47;4995520;28;20045;-76
2022/11/23 04:20:41;;;;;;;6.43;3.50;;;;;;;8.30;66.01;99275.66;4995194;28;20422;-77
2022/11/23 04:23:26;;;;;;;3.97;3.03;;;;;;;8.17;67.73;99276.75;4995438;28;20430;-76
2022/11/23 04:26:11;;;;;;;4.18;3.38;;;;;;;8.40;67.29;99280.66;4983120;28;20053;-76
2022/11/23 04:28:59;;;;;;;5.32;3.75;;;;;;;8.13;66.55;99271.19;4981952;28;20054;-77
2022/11/23 04:31:45;;;;;;;4.68;3.70;;;;;;;7.97;67.21;99277.56;4985054;28;20544;-76
2022/11/23 04:34:32;;;;;;;6.57;4.32;;;;;;;8.02;67.09;99278.16;4983006;28;20041;-77
2022/11/23 04:37:20;;;;;;;7.03;4.05;;;;;;;7.91;67.79;99278.91;4981202;28;20063;-77
2022/11/23 04:40:05;;;;;;;8.38;5.95;;;;;;;7.82;67.75;99284.41;4995170;28;20049;-77
2022/11/23 04:43:08;;;;;;;4.80;3.72;;;;;;;7.84;67.17;99284.84;5009643;28;20054;-77
2022/11/23 04:45:53;;;;;;;6.68;3.72;;;;;;;7.90;66.58;99288.13;4992226;28;20057;-76
2022/11/23 04:48:43;;;;;;;6.75;4.28;;;;;;;7.95;66.86;99286.00;4983817;28;20058;-75
2022/11/23 04:51:28;;;;;;;4.80;2.92;;;;;;;7.84;67.21;99292.16;4994545;28;20069;-75
2022/11/23 04:54:14;;;;;;;8.35;3.78;;;;;;;7.86;67.71;99295.34;4984169;28;20050;-77
2022/11/23 04:57:06;;;;;;;7.35;4.07;;;;;;;7.90;68.17;99294.34;4980002;28;20049;-76
2022/11/23 04:59:51;;;;;;;6.85;4.00;;;;;;;7.85;68.13;99299.97;4994548;28;20518;-77
2022/11/23 05:02:37;;;;;;;4.95;4.00;;;;;;;7.99;67.73;99307.78;4994140;28;20057;-77
2022/11/23 05:05:37;;;;;;;8.32;4.03;;;;;;;7.90;67.44;99307.88;4978969;28;20041;-76
2022/11/23 05:08:23;;;;;;;6.90;4.07;;;;;;;8.08;67.71;99306.59;4977843;28;20053;-76
2022/11/23 05:11:27;;;;;;;6.07;4.65;;;;;;;7.94;66.31;99316.91;4993358;28;20049;-76
2022/11/23 05:14:15;;;;;;;9.25;5.35;;;;;;;7.70;67.35;99312.19;4981783;28;20071;-77
2022/11/23 05:17:00;;;;;;;7.72;4.70;;;;;;;7.74;66.64;99313.09;4975876;28;20046;-76
2022/11/23 05:19:44;;;;;;;6.85;5.45;;;;;;;7.86;66.63;99308.88;4992682;28;20065;-77
2022/11/23 05:22:30;;;;;;;9.13;5.75;;;;;;;7.93;66.54;99304.50;4977713;28;20053;-75
2022/11/23 05:25:16;;;;;;;13.52;4.80;;;;;;;7.96;67.49;99308.47;4991034;28;20053;-76
2022/11/23 05:28:03;;;;;;;5.57;4.20;;;;;;;8.22;67.59;99317.13;4975426;28;20050;-77
2022/11/23 05:30:48;;;;;;;5.28;3.85;;;;;;;8.31;65.66;99312.47;4990414;28;20054;-76
2022/11/23 05:33:33;;;;;;;4.85;3.67;;;;;;;8.47;65.99;99318.81;4979632;28;20049;-76
2022/11/23 05:36:20;;;;;;;9.02;4.93;;;;;;;8.24;64.83;99311.38;4973067;28;20053;-76
2022/11/23 05:39:05;;;;;;;4.40;3.15;;;;;;;7.98;64.93;99311.59;4991435;28;21383;-76
2022/11/23 05:41:50;;;;;;;6.38;4.28;;;;;;;7.67;66.02;99302.00;4993290;28;20054;-75
2022/11/23 05:44:47;;;;;;;6.53;4.95;;;;;;;7.62;66.56;99304.91;4984217;28;20045;-77
2022/11/23 05:47:38;;;;;;;8.55;3.95;;;;;;;7.74;67.92;99310.38;5008128;28;20231;-76
2022/11/23 05:50:27;;;;;;;6.03;4.50;;;;;;;7.74;66.58;99312.31;4991680;28;20045;-77
2022/11/23 05:53:32;;;;;;;8.73;4.18;;;;;;;7.70;65.55;99320.28;4995540;28;20403;-78
2022/11/23 05:56:25;;;;;;;6.22;4.88;;;;;;;7.65;67.12;99314.28;4982900;28;20422;-76
2022/11/23 05:59:22;;;;;;;6.43;4.60;;;;;;;7.53;67.47;99315.00;5004807;28;20064;-78
2022/11/23 06:02:14;;;;;;;5.15;4.22;;;;;;;7.52;66.37;99323.44;5001331;28;20407;-77
2022/11/23 06:04:59;;;;;;;11.38;6.60;;;;;;;7.65;66.61;99320.50;5003128;28;20061;-78
2022/11/23 06:07:54;;;;;;;10.38;5.43;;;;;;;7.72;66.02;99325.34;4995702;28;20053;-78
2022/11/23 06:10:44;;;;;;;5.28;4.45;;;;;;;7.83;66.70;99323.03;4978898;28;20049;-76
2022/11/23 06:13:29;;;;;;;12.02;7.78;;;;;;;7.87;67.81;99340.22;4983995;28;20477;-79
2022/11/23 06:16:15;;;;;;;;;;;;;;;7.98;67.86;99344.88;4998042;28;20554;-80
2022/11/23 06:19:10;;;;;;;4.15;3.72;;;;;;;8.13;68.25;99343.47;4998655;28;19918;-80
2022/11/23 06:21:59;;;;;;;5.47;4.40;;;;;;;8.01;65.58;99348.88;4994805;28;20049;-82
2022/11/23 06:24:48;;;;;;;8.88;5.38;;;;;;;7.94;66.01;99354.00;4994789;28;20053;-80
2022/11/23 06:27:59;;;;;;;5.47;4.10;;;;;;;7.80;65.54;99348.88;4996909;28;20057;-79
2022/11/23 06:30:48;;;;;;;7.82;5.00;;;;;;;7.44;66.52;99357.53;4990174;28;20057;-81
2022/11/23 06:33:34;;;;;;;5.32;3.47;;;;;;;7.30;67.08;99357.78;4964390;28;20054;-80
2022/11/23 06:36:19;;;;;;;6.82;4.28;;;;;;;7.27;68.03;99371.94;4988396;28;20069;-78
2022/11/23 06:39:07;;;;;;;8.93;5.63;;;;;;;7.59;67.23;99369.69;4977042;28;20062;-79
2022/11/23 06:41:52;;;;;;;7.60;3.50;;;;;;;7.43;67.60;99372.19;4994175;28;20054;-81
2022/11/23 06:44:37;;;;;;;6.10;3.78;;;;;;;7.46;67.75;99382.34;4999859;28;20057;-79
2022/11/23 06:47:21;;;;;;;6.25;5.25;;;;;;;7.64;68.00;99383.81;4996172;28;20046;-79
2022/11/23 06:50:08;;;;;;;10.93;4.00;;;;;;;7.81;67.68;99391.03;4997105;28;20053;-80
2022/11/23 06:52:56;;;;;;;10.98;5.90;;;;;;;7.56;67.70;99394.72;4999929;28;20045;-79
2022/11/23 06:55:50;;;;;;;8.13;5.45;;;;;;;7.45;67.74;99401.59;4990857;28;20041;-77
2022/11/23 06:58:37;;;;;;;21.23;5.53;;;;;;;7.40;67.93;99410.69;5002171;28;20045;-79
2022/11/23 07:01:27;;;;;;;15.98;6.30;;;;;;;7.35;69.06;99408.19;4993512;28;20041;-78
2022/11/23 07:04:18;;;;;;;14.48;7.65;;;;;;;7.33;69.95;99407.69;4988514;28;20118;-80
2022/11/23 07:07:08;;;;;;;10.98;7.18;;;;;;;7.46;70.03;99420.22;4994755;28;20045;-77
2022/11/23 07:10:01;;;;;;;11.48;7.95;;;;;;;7.49;70.83;99435.78;4990790;28;20722;-78
2022/11/23 07:13:05;;;;;;;17.52;7.28;;;;;;;7.51;71.52;99444.38;4984552;28;20530;-77
2022/11/23 07:15:50;;;;;;;13.90;7.55;;;;;;;7.53;71.41;99447.53;4993766;28;20046;-78
2022/11/23 07:18:35;;;;;;;13.52;6.30;;;;;;;7.58;71.07;99447.34;4987113;28;20057;-79
2022/11/23 07:21:21;;;;;;;13.13;8.73;;;;;;;7.60;71.30;99458.66;4991421;28;20045;-76
2022/11/23 07:24:07;;;;;;;10.88;7.60;;;;;;;7.69;70.92;99455.88;4981049;28;20045;-77
2022/11/23 07:26:52;;;;;;;13.73;7.47;;;;;;;7.76;70.76;99450.78;4997446;28;20053;-79
2022/11/23 07:29:37;;;;;;;8.38;6.03;;;;;;;7.90;71.23;99455.94;4997051;28;20065;-78
2022/11/23 07:32:22;;;;;;;8.32;5.68;;;;;;;7.81;71.06;99461.41;4988029;28;20046;-79
2022/11/23 07:35:07;;;;;;;17.90;8.43;;;;;;;7.83;71.78;99478.09;4991663;28;20037;-77
2022/11/23 07:37:55;;;;;;;14.90;9.30;;;;;;;7.89;71.72;99473.28;4996679;28;20057;-76
2022/11/23 07:40:40;;;;;;;8.95;6.50;;;;;;;7.94;71.66;99473.88;4997191;28;20062;-77
2022/11/23 07:43:33;;;;;;;17.02;10.70;;;;;;;7.97;71.90;99477.88;4997503;28;20395;-78
2022/11/23 07:46:21;;;;;;;15.07;10.10;;;;;;;8.01;72.30;99481.50;4984675;28;20073;-79
2022/11/23 07:49:06;;;;;;;14.70;9.63;;;;;;;8.05;72.60;99485.13;4983057;28;20065;-78
2022/11/23 07:51:52;;;;;;;10.25;7.15;;;;;;;8.07;72.70;99488.31;4999505;28;20061;-77
2022/11/23 07:54:37;;;;;;;12.13;8.63;;;;;;;8.11;73.24;99490.03;4984359;28;20045;-76
2022/11/23 07:57:22;;;;;;;16.23;10.43;;;;;;;8.22;73.21;99495.84;4982239;28;20522;-77
2022/11/23 08:00:07;;;;;;;;;;;;;;;8.34;73.14;99493.22;4996526;28;20128;-80
2022/11/23 08:02:57;;;;;;;13.63;9.55;;;;;;;8.36;73.03;99501.03;4995828;28;20298;-80
2022/11/23 08:05:42;;;;;;;16.08;9.13;;;;;;;8.40;73.25;99496.53;4978740;28;20053;-75
2022/11/23 08:08:27;;;;;;;11.65;7.40;;;;;;;8.48;73.88;99504.59;4985370;28;20525;-77
2022/11/23 08:11:15;;;;;;;;;;;;;;;8.52;73.63;99508.25;4983585;28;20046;-76
2022/11/23 08:14:00;;;;;;;14.13;10.02;;;;;;;8.53;74.01;99509.81;4996091;28;19922;-77
2022/11/23 08:16:48;;;;;;;12.43;7.33;;;;;;;8.59;74.02;99510.41;4985379;28;20057;-76
2022/11/23 08:19:33;;;;;;;15.73;9.68;;;;;;;8.64;73.99;99518.34;4983318;28;20277;-77
2022/11/23 08:22:17;;;;;;;13.10;9.93;;;;;;;8.70;74.31;99527.06;4981943;28;20058;-79
2022/11/23 08:25:02;;;;;;;10.38;7.72;;;;;;;8.71;74.14;99523.22;4996337;28;20057;-76
2022/11/23 08:27:47;;;;;;;10.35;7.68;;;;;;;8.75;74.24;99522.22;4995281;28;20443;-76
2022/11/23 08:30:33;;;;;;;15.27;10.73;;;;;;;8.84;73.73;99531.06;4992138;28;20049;-77
2022/11/23 08:33:18;;;;;;;13.73;9.70;;;;;;;8.92;73.82;99534.84;4989421;28;20050;-79
2022/11/23 08:36:05;;;;;;;10.75;7.28;;;;;;;8.99;74.03;99535.88;4982302;28;20049;-78
2022/11/23 08:38:51;;;;;;;14.70;9.35;;;;;;;9.07;73.64;99531.53;4979535;28;20054;-77
2022/11/23 08:41:40;;;;;;;14.95;10.18;;;;;;;9.09;73.25;99532.00;4996051;28;20046;-78
2022/11/23 08:44:24;;;;;;;14.57;10.57;;;;;;;9.12;73.34;99534.03;4992329;28;20050;-77
2022/11/23 08:47:09;;;;;;;10.35;7.55;;;;;;;9.18;73.23;99537.31;5000434;28;20057;-78
2022/11/23 08:49:53;;;;;;;13.68;9.30;;;;;;;9.23;73.23;99537.09;4983219;28;20530;-78
2022/11/23 08:52:39;;;;;;;12.63;8.85;;;;;;;9.39;73.34;99541.56;4980852;28;20518;-78
2022/11/23 08:55:28;;;;;;;13.70;9.27;;;;;;;9.49;73.41;99544.97;4983718;28;20041;-80
2022/11/23 08:58:13;;;;;;;15.38;10.07;;;;;;;9.58;73.14;99546.47;4995051;28;20158;-80
2022/11/23 09:00:58;;;;;;;;;;;;;;;9.65;72.88;99548.63;4987699;28;20049;-79
2022/11/23 09:03:46;;;;;;;15.77;10.07;;;;;;;9.74;72.21;99550.09;4983178;28;19913;-79
2022/11/23 09:06:34;;;;;;;14.20;10.55;;;;;;;9.78;72.08;99544.78;4988943;28;20050;-80
2022/11/23 09:09:19;;;;;;;17.25;11.50;;;;;;;9.80;71.71;99545.25;4999654;28;20061;-80
2022/11/23 09:12:05;;;;;;;17.45;10.85;;;;;;;9.87;71.45;99550.88;4984536;28;20046;-80
2022/11/23 09:14:52;;;;;;;15.77;11.23;;;;;;;9.90;71.39;99552.16;5001696;28;20411;-79
2022/11/23 09:17:36;;;;;;;14.70;11.45;;;;;;;9.87;70.98;99546.25;4989066;28;20045;-79
2022/11/23 09:20:22;;;;;;;13.45;8.45;;;;;;;9.99;70.82;99548.19;4985398;28;20045;-78
2022/11/23 09:23:08;;;;;;;16.38;11.10;;;;;;;10.03;70.25;99540.16;4997810;28;20041;-80
2022/11/23 09:25:53;;;;;;;18.50;12.23;;;;;;;10.15;70.23;99548.31;4999903;28;20041;-80
2022/11/23 09:28:37;;;;;;;14.10;8.82;;;;;;;10.08;69.76;99540.72;5005906;28;20526;-79
2022/11/23 09:31:22;;;;;;;15.80;11.00;;;;;;;10.09;68.79;99547.72;4998118;28;20514;-78
2022/11/23 09:34:09;;;;;;;;;;;;;;;10.20;68.96;99554.31;4991895;28;20046;-79
2022/11/23 09:36:56;;;;;;;14.85;10.18;;;;;;;10.24;68.60;99552.50;5004330;28;19913;-79
2022/11/23 09:39:40;;;;;;;12.88;9.18;;;;;;;10.27;68.12;99551.81;4990190;28;20534;-77
2022/11/23 09:42:51;;;;;;;12.30;9.65;;;;;;;10.28;66.44;99547.19;5009785;28;20053;-78
2022/11/23 09:45:46;;;;;;;13.30;8.98;;;;;;;10.32;66.35;99547.28;4975761;28;20057;-76
2022/11/23 09:48:46;;;;;;;;;;;;;;;10.39;66.79;99547.50;5057054;22;20057;-78
2022/11/23 09:51:34;;;;;;;15.48;10.02;;;;;;;10.44;67.25;99549.97;5032390;28;19917;-79
2022/11/23 09:54:26;;;;;;;11.43;8.32;;;;;;;10.53;66.73;99556.06;5020109;28;20053;-79
2022/11/23 09:57:18;;;;;;;15.63;9.02;;;;;;;10.60;66.04;99542.72;5032482;28;20074;-77
2022/11/23 10:00:04;;;;;;;13.73;8.68;;;;;;;10.56;64.71;99545.31;5021116;28;20044;-78
2022/11/23 10:02:49;;;;;;;11.38;8.32;;;;;;;10.56;64.95;99542.59;5032447;28;20048;-77
2022/11/23 10:05:38;;;;;;;10.93;8.02;;;;;;;10.67;65.63;99542.91;5032355;28;20436;-82
2022/11/23 10:08:54;;;;;;;16.17;9.60;;;;;;;10.76;65.25;99535.41;5018400;28;20044;-79
2022/11/23 10:12:04;;;;;;;7.68;5.90;;;;;;;10.81;65.06;99543.31;5031588;28;20043;-81
2022/11/23 10:15:12;;;;;;;9.85;7.95;;;;;;;10.85;64.46;99543.41;5032415;28;20509;-81
2022/11/23 10:18:15;;;;;;;10.00;6.63;;;;;;;10.84;63.94;99542.63;5017603;28;20421;-79
2022/11/23 10:21:21;;;;;;;10.15;7.78;;;;;;;10.82;64.02;99544.88;5033868;28;20044;-78
2022/11/23 10:24:19;;;;;;;9.00;6.57;;;;;;;10.97;63.51;99546.09;5020852;28;20048;-80
2022/11/23 10:27:16;;;;;;;12.75;6.50;;;;;;;10.99;62.63;99533.72;5049902;28;20555;-81
2022/11/23 10:30:01;;;;;;;10.40;7.32;;;;;;;11.03;60.99;99533.81;5072080;28;20700;-82
2022/11/23 10:33:01;;;;;;;6.32;3.85;;;;;;;11.12;60.20;99540.69;5071871;28;20063;-81
2022/11/23 10:35:46;;;;;;;8.75;5.13;;;;;;;11.22;59.40;99535.91;5072066;28;20043;-80
2022/11/23 10:38:31;;;;;;;10.40;4.45;;;;;;;11.40;58.65;99534.44;5072051;28;20417;-79
2022/11/23 10:41:16;;;;;;;7.13;4.85;;;;;;;11.53;58.07;99542.16;5058941;28;20077;-78
2022/11/23 10:44:11;;;;;;;;;;;;;;;11.70;56.76;99546.47;5057380;28;20528;-80
2022/11/23 10:46:55;;;;;;;7.60;5.05;;;;;;;11.67;57.41;99544.47;5071802;28;19912;-80
2022/11/23 10:49:56;;;;;;;4.90;3.78;;;;;;;11.73;57.02;99536.88;5058722;28;20051;-81
2022/11/23 10:52:50;;;;;;;8.98;4.90;;;;;;;11.79;57.33;99532.72;5062841;28;20536;-80
2022/11/23 10:55:57;;;;;;;7.43;4.93;;;;;;;11.83;56.78;99534.41;5071970;28;20048;-79
2022/11/23 10:58:45;;;;;;;9.05;5.72;;;;;;;11.95;57.52;99528.84;5056828;28;20059;-80
2022/11/23 11:01:30;;;;;;;8.85;6.15;;;;;;;11.87;57.23;99532.56;5071436;28;20051;-78
2022/11/23 11:04:22;;;;;;;8.55;5.88;;;;;;;11.86;57.32;99530.97;5070313;28;20052;-78
2022/11/23 11:07:28;;;;;;;8.07;5.93;;;;;;;11.88;57.15;99534.16;5031627;28;20801;-79
2022/11/23 11:10:35;;;;;;;7.95;5.13;;;;;;;11.94;56.68;99534.63;5031887;28;20051;-80
2022/11/23 11:13:40;;;;;;;11.23;5.45;;;;;;;12.13;58.16;99542.91;5035655;28;20043;-80
2022/11/23 11:16:30;;;;;;;6.85;4.88;;;;;;;12.12;56.43;99533.13;5048313;28;20044;-77
2022/11/23 11:19:34;;;;;;;12.35;5.55;;;;;;;12.93;61.07;99542.28;5044548;28;20048;-79
2022/11/23 11:22:34;;;;;;;7.57;5.72;;;;;;;13.31;55.64;99535.25;5034585;28;20048;-78
2022/11/23 11:25:28;;;;;;;11.98;6.05;;;;;;;13.75;54.52;99524.72;5037300;28;20048;-80
2022/11/23 11:28:24;;;;;;;14.18;7.38;;;;;;;13.63;55.54;99529.19;5040989;28;20048;-79
2022/11/23 11:31:32;;;;;;;12.88;5.97;;;;;;;14.08;55.54;99531.09;5038927;28;20045;-78
2022/11/23 11:34:46;;;;;;;9.50;4.82;;;;;;;13.87;51.36;99519.03;5043896;28;20525;-78
2022/11/23 11:37:36;;;;;;;7.20;5.10;;;;;;;13.82;51.09;99522.88;5051934;28;20409;-77
2022/11/23 11:40:31;;;;;;;6.38;4.43;;;;;;;13.55;50.16;99524.78;5039273;28;20052;-78
2022/11/23 11:43:38;;;;;;;38.60;12.40;;;;;;;14.07;57.54;99523.25;5038275;28;20115;-78
2022/11/23 11:46:32;;;;;;;15.07;6.68;;;;;;;14.20;52.96;99530.13;5049139;28;20083;-76
2022/11/23 11:49:23;;;;;;;9.10;5.35;;;;;;;13.81;51.26;99526.00;5050780;28;20048;-76
2022/11/23 11:52:21;;;;;;;7.13;5.00;;;;;;;13.50;51.46;99527.81;5046263;28;20047;-76
2022/11/23 11:55:23;;;;;;;6.60;4.82;;;;;;;13.27;51.76;99527.00;5050386;28;20040;-76
2022/11/23 11:58:10;;;;;;;8.15;5.97;;;;;;;13.23;52.63;99526.13;5049249;28;20108;-76
2022/11/23 12:01:19;;;;;;;9.95;6.50;;;;;;;13.17;53.53;99524.84;5036220;28;20048;-76
2022/11/23 12:04:13;;;;;;;8.88;4.72;;;;;;;13.12;52.90;99527.88;5040245;28;20416;-78
2022/11/23 12:07:11;;;;;;;8.57;4.13;;;;;;;13.10;52.11;99519.25;5049224;28;20056;-76
2022/11/23 12:10:23;;;;;;;12.07;5.97;;;;;;;13.04;51.67;99523.41;5043852;28;20528;-78
2022/11/23 12:13:17;;;;;;;7.90;5.15;;;;;;;13.06;51.65;99521.09;5054203;28;20401;-77
2022/11/23 12:16:21;;;;;;;13.32;5.63;;;;;;;13.06;51.40;99516.44;5041563;28;20048;-76
2022/11/23 12:19:18;;;;;;;6.28;4.38;;;;;;;13.12;49.77;99511.50;5053990;28;20044;-76
2022/11/23 12:22:36;;;;;;;6.47;4.40;;;;;;;13.15;49.22;99513.53;5054023;28;20048;-76
2022/11/23 12:25:37;;;;;;;8.35;4.68;;;;;;;13.21;49.44;99509.31;5040914;28;20048;-76
2022/11/23 12:28:36;;;;;;;6.45;3.75;;;;;;;13.26;48.07;99500.84;5062943;28;20055;-75
2022/11/23 12:31:43;;;;;;;5.80;4.28;;;;;;;13.36;48.72;99502.97;5042037;28;20044;-77
2022/11/23 12:35:09;;;;;;;9.35;4.32;;;;;;;13.38;48.75;99497.94;5052575;28;20048;-76
2022/11/23 12:38:17;;;;;;;9.02;5.32;;;;;;;13.45;49.48;99502.75;5048503;28;20044;-76
2022/11/23 12:41:22;;;;;;;9.98;6.38;;;;;;;13.54;52.67;99503.28;5051908;28;20055;-77
2022/11/23 12:44:31;;;;;;;11.10;7.82;;;;;;;13.68;60.94;99509.78;5052394;28;20051;-76
2022/11/23 12:47:51;;;;;;;13.35;8.50;;;;;;;13.77;63.23;99497.78;5042299;28;20056;-77
2022/11/23 12:50:46;;;;;;;13.80;8.50;;;;;;;13.79;63.42;99498.22;5053376;28;20052;-77
2022/11/23 12:54:12;;;;;;;15.90;10.55;;;;;;;13.86;62.60;99501.88;5043623;28;20064;-77
2022/11/23 12:57:29;;;;;;;11.80;8.98;;;;;;;13.88;62.76;99498.75;5053218;28;20040;-76
2022/11/23 13:00:18;;;;;;;12.85;8.80;;;;;;;13.89;63.17;99495.66;5053314;28;20416;-76
2022/11/23 13:03:21;;;;;;;12.82;8.82;;;;;;;13.86;63.06;99504.63;5053037;28;20044;-76
2022/11/23 13:06:24;;;;;;;12.50;8.40;;;;;;;13.86;62.81;99501.88;5053188;28;20417;-77
2022/11/23 13:09:56;;;;;;;14.63;9.02;;;;;;;13.83;63.46;99504.53;5051273;28;20520;-76
2022/11/23 13:12:56;;;;;;;12.48;9.48;;;;;;;13.78;63.82;99505.63;5050830;28;20517;-76
2022/11/23 13:15:53;;;;;;;16.42;8.88;;;;;;;13.81;63.72;99515.84;5048576;28;20040;-76
2022/11/23 13:19:04;;;;;;;10.82;8.70;;;;;;;13.79;64.07;99500.97;5051215;28;20187;-76
2022/11/23 13:21:48;;;;;;;18.67;9.77;;;;;;;13.76;63.09;99502.50;5038150;28;20433;-76
2022/11/23 13:24:56;;;;;;;15.05;8.10;;;;;;;13.81;64.47;99509.59;5046961;28;20068;-76
2022/11/23 13:27:48;;;;;;;16.95;9.75;;;;;;;13.78;64.04;99510.31;5051425;28;20048;-77
2022/11/23 13:30:36;;;;;;;24.10;9.60;;;;;;;13.79;63.65;99512.69;5048511;28;20044;-77